sensor_id;sensor_type;location;lat;lon;timestamp;P1;durP1;ratioP1;P2;durP2;ratioP2
6392;SDS011;3229;42.674;23.282;2023-02-11T00:02:20;14.10;;;9.93;;
6392;SDS011;3229;42.674;23.282;2023-02-11T00:04:47;15.93;;;10.60;;
6392;SDS011;3229;42.674;23.282;2023-02-11T00:07:14;17.30;;;10.07;;
6392;SDS011;3229;42.674;23.282;2023-02-11T00:09:41;14.20;;;9.83;;
6392;SDS011;3229;42.674;23.282;2023-02-11T00:12:07;18.47;;;10.13;;
6392;SDS011;3229;42.674;23.282;2023-02-11T00:14:34;14.93;;;10.27;;
6392;SDS011;3229;42.674;23.282;2023-02-11T00:17:02;17.93;;;9.97;;
6392;SDS011;3229;42.674;23.282;2023-02-11T00:19:29;15.33;;;9.83;;
6392;SDS011;3229;42.674;23.282;2023-02-11T00:21:56;16.50;;;10.50;;
6392;SDS011;3229;42.674;23.282;2023-02-11T00:24:23;16.93;;;10.50;;
6392;SDS011;3229;42.674;23.282;2023-02-11T00:26:50;19.60;;;11.03;;
6392;SDS011;3229;42.674;23.282;2023-02-11T00:29:16;18.20;;;11.27;;
6392;SDS011;3229;42.674;23.282;2023-02-11T00:31:43;16.63;;;9.87;;
6392;SDS011;3229;42.674;23.282;2023-02-11T00:34:11;16.47;;;10.07;;
6392;SDS011;3229;42.674;23.282;2023-02-11T00:36:38;13.87;;;9.73;;
6392;SDS011;3229;42.674;23.282;2023-02-11T00:39:05;17.10;;;10.33;;
6392;SDS011;3229;42.674;23.282;2023-02-11T00:41:33;16.10;;;10.20;;
6392;SDS011;3229;42.674;23.282;2023-02-11T00:43:59;14.43;;;9.60;;
6392;SDS011;3229;42.674;23.282;2023-02-11T00:46:27;14.30;;;9.53;;
6392;SDS011;3229;42.674;23.282;2023-02-11T00:48:53;14.20;;;9.07;;
6392;SDS011;3229;42.674;23.282;2023-02-11T00:51:23;20.03;;;10.40;;
6392;SDS011;3229;42.674;23.282;2023-02-11T00:53:50;15.37;;;9.87;;
6392;SDS011;3229;42.674;23.282;2023-02-11T00:56:17;14.63;;;9.63;;
6392;SDS011;3229;42.674;23.282;2023-02-11T00:58:44;14.53;;;9.17;;
6392;SDS011;3229;42.674;23.282;2023-02-11T01:01:11;13.70;;;9.40;;
6392;SDS011;3229;42.674;23.282;2023-02-11T01:03:38;15.87;;;9.73;;
6392;SDS011;3229;42.674;23.282;2023-02-11T01:06:06;16.20;;;9.53;;
6392;SDS011;3229;42.674;23.282;2023-02-11T01:08:36;15.07;;;9.90;;
6392;SDS011;3229;42.674;23.282;2023-02-11T01:11:04;12.37;;;8.73;;
6392;SDS011;3229;42.674;23.282;2023-02-11T01:13:33;14.17;;;9.33;;
6392;SDS011;3229;42.674;23.282;2023-02-11T01:16:02;16.33;;;9.90;;
6392;SDS011;3229;42.674;23.282;2023-02-11T01:18:31;13.30;;;9.00;;
6392;SDS011;3229;42.674;23.282;2023-02-11T01:20:58;14.63;;;9.33;;
6392;SDS011;3229;42.674;23.282;2023-02-11T01:23:25;15.20;;;9.57;;
6392;SDS011;3229;42.674;23.282;2023-02-11T01:25:53;14.83;;;9.37;;
6392;SDS011;3229;42.674;23.282;2023-02-11T01:28:21;14.17;;;9.27;;
6392;SDS011;3229;42.674;23.282;2023-02-11T01:30:49;14.50;;;9.50;;
6392;SDS011;3229;42.674;23.282;2023-02-11T01:33:16;16.87;;;9.77;;
6392;SDS011;3229;42.674;23.282;2023-02-11T01:35:43;15.17;;;9.87;;
6392;SDS011;3229;42.674;23.282;2023-02-11T01:38:13;15.83;;;9.77;;
6392;SDS011;3229;42.674;23.282;2023-02-11T01:40:45;13.67;;;8.77;;
6392;SDS011;3229;42.674;23.282;2023-02-11T01:43:14;14.87;;;10.00;;
6392;SDS011;3229;42.674;23.282;2023-02-11T01:45:53;13.13;;;9.20;;
6392;SDS011;3229;42.674;23.282;2023-02-11T01:48:30;14.57;;;9.13;;
6392;SDS011;3229;42.674;23.282;2023-02-11T01:51:01;16.50;;;9.27;;
6392;SDS011;3229;42.674;23.282;2023-02-11T01:53:32;12.57;;;8.47;;
6392;SDS011;3229;42.674;23.282;2023-02-11T01:56:18;15.37;;;9.80;;
6392;SDS011;3229;42.674;23.282;2023-02-11T01:59:06;17.30;;;9.93;;
6392;SDS011;3229;42.674;23.282;2023-02-11T02:01:38;14.10;;;9.60;;
6392;SDS011;3229;42.674;23.282;2023-02-11T02:04:09;14.77;;;9.10;;
6392;SDS011;3229;42.674;23.282;2023-02-11T02:06:39;14.33;;;8.87;;
6392;SDS011;3229;42.674;23.282;2023-02-11T02:09:12;12.83;;;8.67;;
6392;SDS011;3229;42.674;23.282;2023-02-11T02:11:45;13.07;;;8.40;;
6392;SDS011;3229;42.674;23.282;2023-02-11T02:14:13;14.40;;;9.30;;
6392;SDS011;3229;42.674;23.282;2023-02-11T02:16:40;13.63;;;8.70;;
6392;SDS011;3229;42.674;23.282;2023-02-11T02:22:40;15.33;;;9.23;;
6392;SDS011;3229;42.674;23.282;2023-02-11T02:25:39;13.70;;;9.47;;
6392;SDS011;3229;42.674;23.282;2023-02-11T02:28:28;14.73;;;10.30;;
6392;SDS011;3229;42.674;23.282;2023-02-11T02:31:19;15.83;;;9.47;;
6392;SDS011;3229;42.674;23.282;2023-02-11T02:33:59;12.90;;;9.20;;
6392;SDS011;3229;42.674;23.282;2023-02-11T02:36:33;14.93;;;8.90;;
6392;SDS011;3229;42.674;23.282;2023-02-11T02:39:08;13.17;;;9.13;;
6392;SDS011;3229;42.674;23.282;2023-02-11T02:41:40;15.17;;;9.60;;
6392;SDS011;3229;42.674;23.282;2023-02-11T02:44:08;15.03;;;10.30;;
6392;SDS011;3229;42.674;23.282;2023-02-11T02:46:35;14.60;;;9.13;;
6392;SDS011;3229;42.674;23.282;2023-02-11T02:49:05;14.63;;;9.77;;
6392;SDS011;3229;42.674;23.282;2023-02-11T02:51:41;15.63;;;9.87;;
6392;SDS011;3229;42.674;23.282;2023-02-11T02:54:36;16.13;;;10.00;;
6392;SDS011;3229;42.674;23.282;2023-02-11T02:57:22;13.30;;;9.80;;
6392;SDS011;3229;42.674;23.282;2023-02-11T03:00:07;17.80;;;10.40;;
6392;SDS011;3229;42.674;23.282;2023-02-11T03:02:46;14.40;;;10.83;;
6392;SDS011;3229;42.674;23.282;2023-02-11T03:05:29;14.57;;;9.73;;
6392;SDS011;3229;42.674;23.282;2023-02-11T03:08:04;16.07;;;11.20;;
6392;SDS011;3229;42.674;23.282;2023-02-11T03:10:35;17.03;;;10.60;;
6392;SDS011;3229;42.674;23.282;2023-02-11T03:13:03;15.07;;;10.17;;
6392;SDS011;3229;42.674;23.282;2023-02-11T03:15:33;14.87;;;10.50;;
6392;SDS011;3229;42.674;23.282;2023-02-11T03:18:04;16.57;;;10.37;;
6392;SDS011;3229;42.674;23.282;2023-02-11T03:20:35;18.57;;;11.07;;
6392;SDS011;3229;42.674;23.282;2023-02-11T03:23:05;14.57;;;10.63;;
6392;SDS011;3229;42.674;23.282;2023-02-11T03:25:37;13.33;;;10.30;;
6392;SDS011;3229;42.674;23.282;2023-02-11T03:28:11;20.27;;;11.73;;
6392;SDS011;3229;42.674;23.282;2023-02-11T03:30:44;14.00;;;10.03;;
6392;SDS011;3229;42.674;23.282;2023-02-11T03:33:17;16.73;;;10.83;;
6392;SDS011;3229;42.674;23.282;2023-02-11T03:35:52;14.47;;;10.50;;
6392;SDS011;3229;42.674;23.282;2023-02-11T03:38:21;14.43;;;9.80;;
6392;SDS011;3229;42.674;23.282;2023-02-11T03:40:52;14.07;;;9.97;;
6392;SDS011;3229;42.674;23.282;2023-02-11T03:43:21;14.57;;;10.10;;
6392;SDS011;3229;42.674;23.282;2023-02-11T03:45:53;16.93;;;10.53;;
6392;SDS011;3229;42.674;23.282;2023-02-11T03:48:22;15.03;;;10.47;;
6392;SDS011;3229;42.674;23.282;2023-02-11T03:50:53;17.30;;;10.50;;
6392;SDS011;3229;42.674;23.282;2023-02-11T03:53:23;15.03;;;9.80;;
6392;SDS011;3229;42.674;23.282;2023-02-11T03:55:50;14.73;;;10.33;;
6392;SDS011;3229;42.674;23.282;2023-02-11T03:58:19;16.80;;;10.67;;
6392;SDS011;3229;42.674;23.282;2023-02-11T04:00:46;15.57;;;10.90;;
6392;SDS011;3229;42.674;23.282;2023-02-11T04:03:13;17.33;;;10.70;;
6392;SDS011;3229;42.674;23.282;2023-02-11T04:05:40;13.17;;;9.53;;
6392;SDS011;3229;42.674;23.282;2023-02-11T04:08:08;14.77;;;10.57;;
6392;SDS011;3229;42.674;23.282;2023-02-11T04:10:35;13.23;;;10.00;;
6392;SDS011;3229;42.674;23.282;2023-02-11T04:13:02;15.03;;;9.60;;
6392;SDS011;3229;42.674;23.282;2023-02-11T04:15:29;14.53;;;10.37;;
6392;SDS011;3229;42.674;23.282;2023-02-11T04:17:56;15.37;;;10.10;;
6392;SDS011;3229;42.674;23.282;2023-02-11T04:20:23;18.87;;;10.73;;
6392;SDS011;3229;42.674;23.282;2023-02-11T04:22:49;16.47;;;9.93;;
6392;SDS011;3229;42.674;23.282;2023-02-11T04:25:17;13.33;;;9.53;;
6392;SDS011;3229;42.674;23.282;2023-02-11T04:27:44;18.43;;;10.53;;
6392;SDS011;3229;42.674;23.282;2023-02-11T04:30:11;17.27;;;9.70;;
6392;SDS011;3229;42.674;23.282;2023-02-11T04:32:39;15.07;;;9.73;;
6392;SDS011;3229;42.674;23.282;2023-02-11T04:35:06;18.47;;;10.07;;
6392;SDS011;3229;42.674;23.282;2023-02-11T04:37:33;16.60;;;11.40;;
6392;SDS011;3229;42.674;23.282;2023-02-11T04:40:00;16.67;;;10.30;;
6392;SDS011;3229;42.674;23.282;2023-02-11T04:42:28;14.43;;;9.93;;
6392;SDS011;3229;42.674;23.282;2023-02-11T04:44:55;19.43;;;10.27;;
6392;SDS011;3229;42.674;23.282;2023-02-11T04:47:21;19.77;;;11.10;;
6392;SDS011;3229;42.674;23.282;2023-02-11T04:49:48;15.93;;;10.27;;
6392;SDS011;3229;42.674;23.282;2023-02-11T04:52:15;18.03;;;10.93;;
6392;SDS011;3229;42.674;23.282;2023-02-11T04:54:42;16.80;;;10.63;;
6392;SDS011;3229;42.674;23.282;2023-02-11T04:57:08;19.43;;;11.43;;
6392;SDS011;3229;42.674;23.282;2023-02-11T04:59:37;16.87;;;10.00;;
6392;SDS011;3229;42.674;23.282;2023-02-11T05:02:04;15.37;;;10.00;;
6392;SDS011;3229;42.674;23.282;2023-02-11T05:04:31;15.23;;;10.47;;
6392;SDS011;3229;42.674;23.282;2023-02-11T05:06:58;17.70;;;10.83;;
6392;SDS011;3229;42.674;23.282;2023-02-11T05:09:25;18.30;;;11.50;;
6392;SDS011;3229;42.674;23.282;2023-02-11T05:11:52;17.60;;;11.07;;
6392;SDS011;3229;42.674;23.282;2023-02-11T05:14:19;16.73;;;10.77;;
6392;SDS011;3229;42.674;23.282;2023-02-11T05:16:47;18.17;;;10.90;;
6392;SDS011;3229;42.674;23.282;2023-02-11T05:19:13;19.47;;;10.63;;
6392;SDS011;3229;42.674;23.282;2023-02-11T05:21:40;15.30;;;10.87;;
6392;SDS011;3229;42.674;23.282;2023-02-11T05:24:07;16.67;;;11.33;;
6392;SDS011;3229;42.674;23.282;2023-02-11T05:26:34;17.17;;;11.77;;
6392;SDS011;3229;42.674;23.282;2023-02-11T05:29:01;17.83;;;11.43;;
6392;SDS011;3229;42.674;23.282;2023-02-11T05:31:27;18.73;;;11.00;;
6392;SDS011;3229;42.674;23.282;2023-02-11T05:33:56;16.43;;;11.20;;
6392;SDS011;3229;42.674;23.282;2023-02-11T05:36:22;16.70;;;11.83;;
6392;SDS011;3229;42.674;23.282;2023-02-11T05:38:49;19.63;;;12.53;;
6392;SDS011;3229;42.674;23.282;2023-02-11T05:41:16;22.70;;;12.10;;
6392;SDS011;3229;42.674;23.282;2023-02-11T05:43:43;17.70;;;11.83;;
6392;SDS011;3229;42.674;23.282;2023-02-11T05:46:09;17.67;;;11.40;;
6392;SDS011;3229;42.674;23.282;2023-02-11T05:48:36;19.17;;;11.97;;
6392;SDS011;3229;42.674;23.282;2023-02-11T05:51:04;17.63;;;11.97;;
6392;SDS011;3229;42.674;23.282;2023-02-11T05:53:31;17.90;;;12.13;;
6392;SDS011;3229;42.674;23.282;2023-02-11T05:55:58;22.57;;;12.70;;
6392;SDS011;3229;42.674;23.282;2023-02-11T05:58:24;20.80;;;12.80;;
6392;SDS011;3229;42.674;23.282;2023-02-11T06:00:51;21.13;;;11.97;;
6392;SDS011;3229;42.674;23.282;2023-02-11T06:03:18;19.13;;;11.67;;
6392;SDS011;3229;42.674;23.282;2023-02-11T06:05:45;20.00;;;11.67;;
6392;SDS011;3229;42.674;23.282;2023-02-11T06:08:13;18.50;;;11.60;;
6392;SDS011;3229;42.674;23.282;2023-02-11T06:10:40;18.30;;;12.47;;
6392;SDS011;3229;42.674;23.282;2023-02-11T06:13:10;19.53;;;12.93;;
6392;SDS011;3229;42.674;23.282;2023-02-11T06:15:37;22.60;;;13.73;;
6392;SDS011;3229;42.674;23.282;2023-02-11T06:18:04;21.03;;;12.47;;
6392;SDS011;3229;42.674;23.282;2023-02-11T06:20:31;22.67;;;12.67;;
6392;SDS011;3229;42.674;23.282;2023-02-11T06:22:57;20.60;;;13.63;;
6392;SDS011;3229;42.674;23.282;2023-02-11T06:25:26;27.07;;;14.27;;
6392;SDS011;3229;42.674;23.282;2023-02-11T06:27:52;24.87;;;13.70;;
6392;SDS011;3229;42.674;23.282;2023-02-11T06:30:19;25.20;;;14.33;;
6392;SDS011;3229;42.674;23.282;2023-02-11T06:32:46;23.53;;;14.63;;
6392;SDS011;3229;42.674;23.282;2023-02-11T06:35:13;24.57;;;15.03;;
6392;SDS011;3229;42.674;23.282;2023-02-11T06:37:40;21.87;;;14.03;;
6392;SDS011;3229;42.674;23.282;2023-02-11T06:40:07;20.23;;;12.90;;
6392;SDS011;3229;42.674;23.282;2023-02-11T06:42:36;22.87;;;14.47;;
6392;SDS011;3229;42.674;23.282;2023-02-11T06:45:03;21.30;;;14.27;;
6392;SDS011;3229;42.674;23.282;2023-02-11T06:47:33;24.67;;;14.47;;
6392;SDS011;3229;42.674;23.282;2023-02-11T06:50:00;26.77;;;14.80;;
6392;SDS011;3229;42.674;23.282;2023-02-11T06:52:27;29.43;;;14.73;;
6392;SDS011;3229;42.674;23.282;2023-02-11T06:54:53;22.07;;;13.87;;
6392;SDS011;3229;42.674;23.282;2023-02-11T06:57:20;22.10;;;14.63;;
6392;SDS011;3229;42.674;23.282;2023-02-11T06:59:48;22.77;;;13.77;;
6392;SDS011;3229;42.674;23.282;2023-02-11T07:02:15;21.97;;;14.87;;
6392;SDS011;3229;42.674;23.282;2023-02-11T07:04:42;21.70;;;15.00;;
6392;SDS011;3229;42.674;23.282;2023-02-11T07:07:09;23.93;;;15.83;;
6392;SDS011;3229;42.674;23.282;2023-02-11T07:09:36;26.10;;;15.87;;
6392;SDS011;3229;42.674;23.282;2023-02-11T07:12:03;23.83;;;15.40;;
6392;SDS011;3229;42.674;23.282;2023-02-11T07:14:30;21.93;;;15.70;;
6392;SDS011;3229;42.674;23.282;2023-02-11T07:16:58;22.10;;;15.87;;
6392;SDS011;3229;42.674;23.282;2023-02-11T07:19:25;25.10;;;16.17;;
6392;SDS011;3229;42.674;23.282;2023-02-11T07:21:51;23.77;;;15.93;;
6392;SDS011;3229;42.674;23.282;2023-02-11T07:24:19;22.53;;;15.37;;
6392;SDS011;3229;42.674;23.282;2023-02-11T07:26:46;27.53;;;16.30;;
6392;SDS011;3229;42.674;23.282;2023-02-11T07:29:12;21.23;;;15.03;;
6392;SDS011;3229;42.674;23.282;2023-02-11T07:31:39;19.43;;;14.10;;
6392;SDS011;3229;42.674;23.282;2023-02-11T07:34:08;21.27;;;15.10;;
6392;SDS011;3229;42.674;23.282;2023-02-11T07:36:35;22.67;;;15.17;;
6392;SDS011;3229;42.674;23.282;2023-02-11T07:39:02;18.53;;;13.23;;
6392;SDS011;3229;42.674;23.282;2023-02-11T07:41:29;17.63;;;12.87;;
6392;SDS011;3229;42.674;23.282;2023-02-11T07:43:56;19.10;;;12.47;;
6392;SDS011;3229;42.674;23.282;2023-02-11T07:46:24;17.37;;;13.60;;
6392;SDS011;3229;42.674;23.282;2023-02-11T07:48:52;18.13;;;12.97;;
6392;SDS011;3229;42.674;23.282;2023-02-11T07:51:21;16.30;;;11.63;;
6392;SDS011;3229;42.674;23.282;2023-02-11T07:53:50;13.43;;;8.33;;
6392;SDS011;3229;42.674;23.282;2023-02-11T07:56:18;15.88;;;9.75;;
6392;SDS011;3229;42.674;23.282;2023-02-11T07:58:45;19.23;;;12.10;;
6392;SDS011;3229;42.674;23.282;2023-02-11T08:01:13;19.52;;;12.40;;
6392;SDS011;3229;42.674;23.282;2023-02-11T08:03:41;13.05;;;10.48;;
6392;SDS011;3229;42.674;23.282;2023-02-11T08:06:09;16.92;;;9.98;;
6392;SDS011;3229;42.674;23.282;2023-02-11T08:08:38;10.95;;;8.75;;
6392;SDS011;3229;42.674;23.282;2023-02-11T08:11:05;11.88;;;8.65;;
6392;SDS011;3229;42.674;23.282;2023-02-11T08:13:33;17.98;;;9.20;;
6392;SDS011;3229;42.674;23.282;2023-02-11T08:16:00;13.05;;;9.23;;
6392;SDS011;3229;42.674;23.282;2023-02-11T08:18:27;15.05;;;8.82;;
6392;SDS011;3229;42.674;23.282;2023-02-11T08:20:53;11.65;;;8.60;;
6392;SDS011;3229;42.674;23.282;2023-02-11T08:23:20;11.20;;;8.30;;
6392;SDS011;3229;42.674;23.282;2023-02-11T08:25:48;15.13;;;9.60;;
6392;SDS011;3229;42.674;23.282;2023-02-11T08:28:15;12.82;;;8.75;;
6392;SDS011;3229;42.674;23.282;2023-02-11T08:30:42;13.45;;;9.98;;
6392;SDS011;3229;42.674;23.282;2023-02-11T08:33:09;11.17;;;9.20;;
6392;SDS011;3229;42.674;23.282;2023-02-11T08:35:36;13.55;;;10.70;;
6392;SDS011;3229;42.674;23.282;2023-02-11T08:38:04;15.90;;;10.57;;
6392;SDS011;3229;42.674;23.282;2023-02-11T08:40:31;13.70;;;10.20;;
6392;SDS011;3229;42.674;23.282;2023-02-11T08:42:59;20.67;;;10.83;;
6392;SDS011;3229;42.674;23.282;2023-02-11T08:45:26;15.20;;;10.40;;
6392;SDS011;3229;42.674;23.282;2023-02-11T08:47:53;13.77;;;10.80;;
6392;SDS011;3229;42.674;23.282;2023-02-11T08:50:19;14.63;;;10.30;;
6392;SDS011;3229;42.674;23.282;2023-02-11T08:52:46;12.83;;;10.83;;
6392;SDS011;3229;42.674;23.282;2023-02-11T08:55:14;12.60;;;10.27;;
6392;SDS011;3229;42.674;23.282;2023-02-11T08:57:40;15.50;;;10.33;;
6392;SDS011;3229;42.674;23.282;2023-02-11T09:00:09;16.70;;;10.97;;
6392;SDS011;3229;42.674;23.282;2023-02-11T09:02:37;12.13;;;9.77;;
6392;SDS011;3229;42.674;23.282;2023-02-11T09:05:04;16.00;;;10.70;;
6392;SDS011;3229;42.674;23.282;2023-02-11T09:07:31;13.77;;;10.57;;
6392;SDS011;3229;42.674;23.282;2023-02-11T09:09:58;14.03;;;11.23;;
6392;SDS011;3229;42.674;23.282;2023-02-11T09:12:25;15.00;;;10.90;;
6392;SDS011;3229;42.674;23.282;2023-02-11T09:14:51;13.27;;;10.10;;
6392;SDS011;3229;42.674;23.282;2023-02-11T09:17:20;14.00;;;9.67;;
6392;SDS011;3229;42.674;23.282;2023-02-11T09:19:46;14.10;;;10.50;;
6392;SDS011;3229;42.674;23.282;2023-02-11T09:22:13;14.87;;;10.30;;
6392;SDS011;3229;42.674;23.282;2023-02-11T09:24:40;17.77;;;10.87;;
6392;SDS011;3229;42.674;23.282;2023-02-11T09:27:07;14.03;;;9.77;;
6392;SDS011;3229;42.674;23.282;2023-02-11T09:29:34;13.43;;;10.70;;
6392;SDS011;3229;42.674;23.282;2023-02-11T09:32:01;14.70;;;10.63;;
6392;SDS011;3229;42.674;23.282;2023-02-11T09:34:29;14.27;;;10.43;;
6392;SDS011;3229;42.674;23.282;2023-02-11T09:36:56;13.20;;;10.07;;
6392;SDS011;3229;42.674;23.282;2023-02-11T09:39:22;15.33;;;10.10;;
6392;SDS011;3229;42.674;23.282;2023-02-11T09:44:45;14.53;;;10.10;;
6392;SDS011;3229;42.674;23.282;2023-02-11T09:47:18;14.10;;;10.60;;
6392;SDS011;3229;42.674;23.282;2023-02-11T09:49:52;15.80;;;10.10;;
6392;SDS011;3229;42.674;23.282;2023-02-11T09:52:26;15.43;;;9.50;;
6392;SDS011;3229;42.674;23.282;2023-02-11T09:54:59;16.30;;;10.60;;
6392;SDS011;3229;42.674;23.282;2023-02-11T09:57:28;16.07;;;10.10;;
6392;SDS011;3229;42.674;23.282;2023-02-11T09:59:58;14.63;;;10.20;;
6392;SDS011;3229;42.674;23.282;2023-02-11T10:02:26;13.03;;;9.80;;
6392;SDS011;3229;42.674;23.282;2023-02-11T10:05:12;15.10;;;9.43;;
6392;SDS011;3229;42.674;23.282;2023-02-11T10:07:51;13.97;;;10.20;;
6392;SDS011;3229;42.674;23.282;2023-02-11T10:10:28;11.70;;;9.00;;
6392;SDS011;3229;42.674;23.282;2023-02-11T10:13:10;14.87;;;9.80;;
6392;SDS011;3229;42.674;23.282;2023-02-11T10:15:50;15.33;;;9.83;;
6392;SDS011;3229;42.674;23.282;2023-02-11T10:18:32;14.97;;;9.50;;
6392;SDS011;3229;42.674;23.282;2023-02-11T10:21:14;11.53;;;9.03;;
6392;SDS011;3229;42.674;23.282;2023-02-11T10:23:50;12.40;;;9.43;;
6392;SDS011;3229;42.674;23.282;2023-02-11T10:26:19;13.63;;;9.27;;
6392;SDS011;3229;42.674;23.282;2023-02-11T10:28:48;12.37;;;8.70;;
6392;SDS011;3229;42.674;23.282;2023-02-11T10:31:20;12.20;;;9.67;;
6392;SDS011;3229;42.674;23.282;2023-02-11T10:33:50;11.87;;;8.90;;
6392;SDS011;3229;42.674;23.282;2023-02-11T10:36:24;12.73;;;8.83;;
6392;SDS011;3229;42.674;23.282;2023-02-11T10:38:54;15.00;;;8.83;;
6392;SDS011;3229;42.674;23.282;2023-02-11T10:41:23;12.53;;;8.80;;
6392;SDS011;3229;42.674;23.282;2023-02-11T10:43:57;15.23;;;8.90;;
6392;SDS011;3229;42.674;23.282;2023-02-11T10:46:30;10.67;;;8.47;;
6392;SDS011;3229;42.674;23.282;2023-02-11T10:49:00;10.37;;;8.17;;
6392;SDS011;3229;42.674;23.282;2023-02-11T10:51:29;13.13;;;8.33;;
6392;SDS011;3229;42.674;23.282;2023-02-11T10:56:45;13.40;;;9.27;;
6392;SDS011;3229;42.674;23.282;2023-02-11T10:59:26;11.23;;;8.40;;
6392;SDS011;3229;42.674;23.282;2023-02-11T11:01:55;12.07;;;8.53;;
6392;SDS011;3229;42.674;23.282;2023-02-11T11:04:36;12.83;;;8.03;;
6392;SDS011;3229;42.674;23.282;2023-02-11T11:07:11;14.40;;;8.00;;
6392;SDS011;3229;42.674;23.282;2023-02-11T11:09:46;15.73;;;8.70;;
6392;SDS011;3229;42.674;23.282;2023-02-11T11:12:25;10.47;;;7.67;;
6392;SDS011;3229;42.674;23.282;2023-02-11T11:14:57;10.20;;;7.57;;
6392;SDS011;3229;42.674;23.282;2023-02-11T11:17:25;16.90;;;9.33;;
6392;SDS011;3229;42.674;23.282;2023-02-11T11:19:53;15.60;;;8.87;;
6392;SDS011;3229;42.674;23.282;2023-02-11T11:22:40;9.90;;;7.97;;
6392;SDS011;3229;42.674;23.282;2023-02-11T11:25:19;13.30;;;8.17;;
6392;SDS011;3229;42.674;23.282;2023-02-11T11:27:47;11.13;;;7.93;;
6392;SDS011;3229;42.674;23.282;2023-02-11T11:30:15;10.93;;;8.13;;
6392;SDS011;3229;42.674;23.282;2023-02-11T11:32:43;11.17;;;7.80;;
6392;SDS011;3229;42.674;23.282;2023-02-11T11:35:19;10.00;;;7.57;;
6392;SDS011;3229;42.674;23.282;2023-02-11T11:37:52;13.13;;;8.40;;
6392;SDS011;3229;42.674;23.282;2023-02-11T11:40:22;10.77;;;7.77;;
6392;SDS011;3229;42.674;23.282;2023-02-11T11:43:04;9.77;;;7.73;;
6392;SDS011;3229;42.674;23.282;2023-02-11T11:45:51;12.00;;;8.07;;
6392;SDS011;3229;42.674;23.282;2023-02-11T11:48:20;11.30;;;7.90;;
6392;SDS011;3229;42.674;23.282;2023-02-11T11:50:51;9.97;;;7.77;;
6392;SDS011;3229;42.674;23.282;2023-02-11T11:53:26;10.93;;;7.90;;
6392;SDS011;3229;42.674;23.282;2023-02-11T11:55:59;9.30;;;7.53;;
6392;SDS011;3229;42.674;23.282;2023-02-11T11:58:29;9.37;;;7.10;;
6392;SDS011;3229;42.674;23.282;2023-02-11T12:00:59;10.13;;;7.60;;
6392;SDS011;3229;42.674;23.282;2023-02-11T12:03:53;11.93;;;7.77;;
6392;SDS011;3229;42.674;23.282;2023-02-11T12:06:39;10.83;;;7.33;;
6392;SDS011;3229;42.674;23.282;2023-02-11T12:09:18;8.87;;;6.77;;
6392;SDS011;3229;42.674;23.282;2023-02-11T12:11:57;11.20;;;7.10;;
6392;SDS011;3229;42.674;23.282;2023-02-11T12:14:39;10.80;;;7.27;;
6392;SDS011;3229;42.674;23.282;2023-02-11T12:17:13;11.87;;;8.13;;
6392;SDS011;3229;42.674;23.282;2023-02-11T12:19:53;10.33;;;7.93;;
6392;SDS011;3229;42.674;23.282;2023-02-11T12:22:40;10.37;;;7.23;;
6392;SDS011;3229;42.674;23.282;2023-02-11T12:25:21;10.17;;;7.47;;
6392;SDS011;3229;42.674;23.282;2023-02-11T12:27:55;9.10;;;7.67;;
6392;SDS011;3229;42.674;23.282;2023-02-11T12:30:44;10.67;;;7.50;;
6392;SDS011;3229;42.674;23.282;2023-02-11T12:33:20;9.37;;;7.40;;
6392;SDS011;3229;42.674;23.282;2023-02-11T12:36:00;8.60;;;7.00;;
6392;SDS011;3229;42.674;23.282;2023-02-11T12:38:37;12.60;;;7.47;;
6392;SDS011;3229;42.674;23.282;2023-02-11T12:41:21;10.23;;;7.33;;
6392;SDS011;3229;42.674;23.282;2023-02-11T12:44:10;10.53;;;7.50;;
6392;SDS011;3229;42.674;23.282;2023-02-11T12:46:52;10.27;;;7.40;;
6392;SDS011;3229;42.674;23.282;2023-02-11T12:52:18;12.30;;;8.17;;
6392;SDS011;3229;42.674;23.282;2023-02-11T12:54:59;8.43;;;7.03;;
6392;SDS011;3229;42.674;23.282;2023-02-11T12:57:30;8.63;;;6.70;;
6392;SDS011;3229;42.674;23.282;2023-02-11T12:59:59;9.77;;;6.87;;
6392;SDS011;3229;42.674;23.282;2023-02-11T13:02:32;11.07;;;7.30;;
6392;SDS011;3229;42.674;23.282;2023-02-11T13:05:04;10.73;;;7.47;;
6392;SDS011;3229;42.674;23.282;2023-02-11T13:07:43;8.90;;;6.97;;
6392;SDS011;3229;42.674;23.282;2023-02-11T13:10:17;14.30;;;7.90;;
6392;SDS011;3229;42.674;23.282;2023-02-11T13:12:51;8.67;;;7.13;;
6392;SDS011;3229;42.674;23.282;2023-02-11T13:15:38;13.53;;;8.13;;
6392;SDS011;3229;42.674;23.282;2023-02-11T13:18:10;7.47;;;6.43;;
6392;SDS011;3229;42.674;23.282;2023-02-11T13:20:43;11.20;;;7.33;;
6392;SDS011;3229;42.674;23.282;2023-02-11T13:23:18;8.57;;;6.57;;
6392;SDS011;3229;42.674;23.282;2023-02-11T13:25:53;11.30;;;7.30;;
6392;SDS011;3229;42.674;23.282;2023-02-11T13:28:33;10.67;;;7.33;;
6392;SDS011;3229;42.674;23.282;2023-02-11T13:31:09;8.93;;;6.83;;
6392;SDS011;3229;42.674;23.282;2023-02-11T13:33:40;10.53;;;7.50;;
6392;SDS011;3229;42.674;23.282;2023-02-11T13:36:15;10.87;;;7.70;;
6392;SDS011;3229;42.674;23.282;2023-02-11T13:38:57;8.53;;;6.73;;
6392;SDS011;3229;42.674;23.282;2023-02-11T13:41:30;8.60;;;6.70;;
6392;SDS011;3229;42.674;23.282;2023-02-11T13:46:56;8.03;;;6.93;;
6392;SDS011;3229;42.674;23.282;2023-02-11T13:49:29;8.73;;;7.27;;
6392;SDS011;3229;42.674;23.282;2023-02-11T13:52:00;8.70;;;6.43;;
6392;SDS011;3229;42.674;23.282;2023-02-11T13:54:32;9.73;;;7.27;;
6392;SDS011;3229;42.674;23.282;2023-02-11T13:57:25;10.87;;;7.53;;
6392;SDS011;3229;42.674;23.282;2023-02-11T14:00:02;9.47;;;7.00;;
6392;SDS011;3229;42.674;23.282;2023-02-11T14:02:58;11.13;;;8.03;;
6392;SDS011;3229;42.674;23.282;2023-02-11T14:06:11;9.57;;;7.83;;
6392;SDS011;3229;42.674;23.282;2023-02-11T14:08:59;9.27;;;7.60;;
6392;SDS011;3229;42.674;23.282;2023-02-11T14:11:43;8.97;;;6.50;;
6392;SDS011;3229;42.674;23.282;2023-02-11T14:14:19;10.23;;;7.13;;
6392;SDS011;3229;42.674;23.282;2023-02-11T14:19:57;11.90;;;6.97;;
6392;SDS011;3229;42.674;23.282;2023-02-11T14:22:25;9.43;;;6.83;;
6392;SDS011;3229;42.674;23.282;2023-02-11T14:24:55;10.60;;;6.73;;
6392;SDS011;3229;42.674;23.282;2023-02-11T14:27:30;10.73;;;7.20;;
6392;SDS011;3229;42.674;23.282;2023-02-11T14:36:37;9.60;;;6.70;;
6392;SDS011;3229;42.674;23.282;2023-02-11T14:39:22;10.43;;;7.63;;
6392;SDS011;3229;42.674;23.282;2023-02-11T14:41:58;10.40;;;7.70;;
6392;SDS011;3229;42.674;23.282;2023-02-11T14:44:28;10.10;;;7.90;;
6392;SDS011;3229;42.674;23.282;2023-02-11T14:46:56;11.37;;;7.07;;
6392;SDS011;3229;42.674;23.282;2023-02-11T14:49:25;11.33;;;7.80;;
6392;SDS011;3229;42.674;23.282;2023-02-11T14:51:56;11.87;;;7.20;;
6392;SDS011;3229;42.674;23.282;2023-02-11T14:54:29;11.83;;;7.63;;
6392;SDS011;3229;42.674;23.282;2023-02-11T14:57:07;10.43;;;7.70;;
6392;SDS011;3229;42.674;23.282;2023-02-11T14:59:38;9.53;;;7.30;;
6392;SDS011;3229;42.674;23.282;2023-02-11T15:02:17;12.17;;;7.70;;
6392;SDS011;3229;42.674;23.282;2023-02-11T15:04:45;11.80;;;8.90;;
6392;SDS011;3229;42.674;23.282;2023-02-11T15:07:14;10.07;;;7.47;;
6392;SDS011;3229;42.674;23.282;2023-02-11T15:09:41;8.80;;;7.03;;
6392;SDS011;3229;42.674;23.282;2023-02-11T15:12:14;9.43;;;7.50;;
6392;SDS011;3229;42.674;23.282;2023-02-11T15:14:45;10.00;;;7.23;;
6392;SDS011;3229;42.674;23.282;2023-02-11T15:17:13;11.10;;;7.63;;
6392;SDS011;3229;42.674;23.282;2023-02-11T15:19:45;8.43;;;7.10;;
6392;SDS011;3229;42.674;23.282;2023-02-11T15:22:16;10.03;;;7.83;;
6392;SDS011;3229;42.674;23.282;2023-02-11T15:24:54;11.00;;;8.30;;
6392;SDS011;3229;42.674;23.282;2023-02-11T15:27:24;11.67;;;7.53;;
6392;SDS011;3229;42.674;23.282;2023-02-11T15:29:51;13.63;;;7.87;;
6392;SDS011;3229;42.674;23.282;2023-02-11T15:32:18;10.30;;;7.87;;